Agnew, Washington
Current Conditions -  °F | °C
As of 3:53 PM on Monday 20 Oct 2014 (Local Time) from KCLM Reporting Station
Broken Clouds Broken Clouds  
Wind Chill: 60°   Ceiling: 9000
Heat Index: 60°   Visibility: 10mi
Dew Point: 54°   Wind: 6mph
Humidity: 80%   Direction: 90°E
Pressure: 29.73"   Gusts: NA
Location:  48.0203°N, 123.478°W
Report Text: KCLM 202253Z AUTO 09005KT 10SM SCT080 BKN090 16/12 A2973 RMK AO2 RAB2158E11 SLP065 P0000 T01560122 TSNO $
Loading
Personal Weather Stations






























Interactive Weather Map
Tropical Storm Tracking
New forecast layout! Learn more

10-Day Weather Forecast

Advertisements
Track Severe Weather on mobile